Time;durP1;ratioP1;P1;durP2;ratioP2;P2;SDS_P1;SDS_P2;PMS_P1;PMS_P2;Temp;Humidity;BMP_temperature;BMP_pressure;BME280_temperature;BME280_humidity;BME280_pressure;Samples;Min_cycle;Max_cycle;Signal;HPM_P1;HPM_P2
2023/12/27 00:01:03;;;;;;;;;;;;;;;4.64;100.00;102041.91;5109560;28;20414;-45
2023/12/27 00:03:28;;;;;;;;;;;;;;;4.62;100.00;102034.84;5107729;28;19919;-45
2023/12/27 00:05:54;;;;;;;;;;;;;;;4.58;100.00;102033.41;5111011;28;20013;-46
2023/12/27 00:08:19;;;;;;;;;;;;;;;4.60;100.00;102019.94;5102004;28;19920;-48
2023/12/27 00:10:44;;;;;;;;;;;;;;;4.60;100.00;102025.25;5104307;28;19920;-43
2023/12/27 00:13:09;;;;;;;;;;;;;;;4.58;100.00;102024.50;5108188;28;19939;-47
2023/12/27 00:15:35;;;;;;;;;;;;;;;4.60;100.00;102025.25;5110774;28;19920;-44
2023/12/27 00:18:00;;;;;;;;;;;;;;;4.62;100.00;102023.34;5107280;28;19926;-45
2023/12/27 00:20:25;;;;;;;;;;;;;;;4.70;100.00;102020.09;5110546;28;20000;-46
2023/12/27 00:22:50;;;;;;;;;;;;;;;4.76;100.00;102016.97;5107255;28;19928;-47
2023/12/27 00:25:15;;;;;;;;;;;;;;;4.77;100.00;102016.03;5110072;28;20064;-45
2023/12/27 00:27:41;;;;;;;;;;;;;;;4.69;100.00;102007.75;5109221;28;20347;-45
2023/12/27 00:30:06;;;;;;;;;;;;;;;4.72;100.00;102003.03;5107426;28;20263;-44
2023/12/27 00:32:31;;;;;;;;;;;;;;;4.67;100.00;102002.50;5108160;28;20402;-45
2023/12/27 00:34:56;;;;;;;;;;;;;;;4.66;100.00;102010.63;5105503;28;19926;-45
2023/12/27 00:37:22;;;;;;;;;;;;;;;4.61;100.00;102011.81;5106567;28;20030;-45
2023/12/27 00:39:47;;;;;;;;;;;;;;;4.59;100.00;102016.41;5107271;28;19957;-46
2023/12/27 00:42:13;;;;;;;;;;;;;;;4.58;100.00;102014.72;5103085;28;20024;-46
2023/12/27 00:44:38;;;;;;;;;;;;;;;4.60;100.00;102020.78;5099910;28;19935;-47
2023/12/27 00:47:03;;;;;;;;;;;;;;;4.59;100.00;102018.25;5103608;28;19916;-45
2023/12/27 00:49:28;;;;;;;;;;;;;;;4.57;100.00;102014.81;5109698;28;19923;-45
2023/12/27 00:51:54;;;;;;;;;;;;;;;4.59;100.00;102007.56;5109021;28;19931;-46
2023/12/27 00:54:19;;;;;;;;;;;;;;;4.61;100.00;102002.97;5104992;28;19964;-45
2023/12/27 00:56:44;;;;;;;;;;;;;;;4.65;100.00;102007.09;5108519;28;20002;-47
2023/12/27 00:59:10;;;;;;;;;;;;;;;4.66;100.00;102006.16;5108883;28;19923;-44
2023/12/27 01:01:35;;;;;;;;;;;;;;;4.65;100.00;101991.09;5107845;28;19922;-46
2023/12/27 01:04:00;;;;;;;;;;;;;;;4.78;100.00;101985.69;5106644;28;19916;-45
2023/12/27 01:06:26;;;;;;;;;;;;;;;4.82;100.00;101989.84;5103449;28;19926;-45
2023/12/27 01:08:51;;;;;;;;;;;;;;;4.79;100.00;101990.06;5109174;28;19916;-47
2023/12/27 01:11:16;;;;;;;;;;;;;;;4.76;100.00;101992.97;5103117;28;20006;-45
2023/12/27 01:13:41;;;;;;;;;;;;;;;4.74;100.00;101994.88;5103364;28;20378;-46
2023/12/27 01:16:06;;;;;;;;;;;;;;;4.73;100.00;102001.19;5104556;28;19934;-46
2023/12/27 01:18:32;;;;;;;;;;;;;;;4.69;100.00;101992.59;5103809;28;19916;-46
2023/12/27 01:20:57;;;;;;;;;;;;;;;4.68;100.00;101998.03;5104307;28;20265;-45
2023/12/27 01:23:22;;;;;;;;;;;;;;;4.65;100.00;102003.59;5105216;28;19918;-46
2023/12/27 01:25:47;;;;;;;;;;;;;;;4.60;100.00;102006.59;5105022;27;19924;-46
2023/12/27 01:28:13;;;;;;;;;;;;;;;4.56;100.00;102013.13;5106524;28;19941;-46
2023/12/27 01:30:38;;;;;;;;;;;;;;;4.54;100.00;102004.41;5109465;28;19928;-46
2023/12/27 01:33:03;;;;;;;;;;;;;;;4.58;100.00;101995.19;5104275;28;20019;-45
2023/12/27 01:35:28;;;;;;;;;;;;;;;4.53;100.00;101994.69;5106779;28;19990;-46
2023/12/27 01:37:54;;;;;;;;;;;;;;;4.50;100.00;101990.47;5100229;28;19931;-44
2023/12/27 01:40:19;;;;;;;;;;;;;;;4.56;100.00;101992.66;5106379;28;19954;-47
2023/12/27 01:42:44;;;;;;;;;;;;;;;4.61;100.00;101995.84;5109656;28;19959;-45
2023/12/27 01:45:09;;;;;;;;;;;;;;;4.59;100.00;101989.75;5107408;28;19928;-45
2023/12/27 01:47:37;;;;;;;;;;;;;;;4.68;100.00;101987.34;5105799;28;19986;-45
2023/12/27 01:50:02;;;;;;;;;;;;;;;4.84;100.00;101983.44;5107572;28;20346;-46
2023/12/27 01:52:28;;;;;;;;;;;;;;;4.90;100.00;101978.56;5103795;28;19923;-45
2023/12/27 01:54:53;;;;;;;;;;;;;;;4.91;100.00;101986.47;5106304;28;19972;-45
2023/12/27 01:57:18;;;;;;;;;;;;;;;4.91;100.00;101975.81;5109205;28;19935;-44
2023/12/27 01:59:44;;;;;;;;;;;;;;;4.87;100.00;101979.69;5106204;28;19934;-47
2023/12/27 02:02:09;;;;;;;;;;;;;;;4.90;100.00;101974.09;5108220;28;20281;-47
2023/12/27 02:04:35;;;;;;;;;;;;;;;4.93;100.00;101981.03;5108354;28;19920;-44
2023/12/27 02:07:00;;;;;;;;;;;;;;;4.95;100.00;101997.75;5104420;28;19926;-46
2023/12/27 02:09:25;;;;;;;;;;;;;;;4.92;100.00;101996.16;5104303;28;19919;-47
2023/12/27 02:11:51;;;;;;;;;;;;;;;4.98;100.00;101998.38;5101752;28;19927;-47
2023/12/27 02:14:16;;;;;;;;;;;;;;;5.09;100.00;102004.72;5105539;28;19927;-45
2023/12/27 02:16:41;;;;;;;;;;;;;;;5.19;100.00;101990.53;5107716;28;19928;-46
2023/12/27 02:19:07;;;;;;;;;;;;;;;5.19;100.00;101990.53;5104150;28;19927;-47
2023/12/27 02:21:32;;;;;;;;;;;;;;;5.15;100.00;101986.41;5101091;28;19927;-48
2023/12/27 02:23:58;;;;;;;;;;;;;;;5.15;100.00;101990.91;5104859;28;20007;-47
2023/12/27 02:26:23;;;;;;;;;;;;;;;5.12;100.00;101978.63;5105227;28;20274;-45
2023/12/27 02:28:48;;;;;;;;;;;;;;;5.10;100.00;101985.91;5105194;28;19924;-46
2023/12/27 02:31:13;;;;;;;;;;;;;;;5.10;100.00;101969.06;5107781;28;19935;-44
2023/12/27 02:33:40;;;;;;;;;;;;;;;5.20;100.00;101970.03;5107326;28;20763;-44
2023/12/27 02:36:06;;;;;;;;;;;;;;;5.33;100.00;101961.94;5106179;28;20037;-45
2023/12/27 02:38:31;;;;;;;;;;;;;;;5.36;100.00;101959.00;5095908;28;19916;-44
2023/12/27 02:40:56;;;;;;;;;;;;;;;5.38;100.00;101963.25;5107807;28;20429;-44
2023/12/27 02:43:21;;;;;;;;;;;;;;;5.38;100.00;101951.75;5104279;28;19927;-46
2023/12/27 02:45:47;;;;;;;;;;;;;;;5.38;100.00;101941.91;5107914;28;19925;-44
2023/12/27 02:48:12;;;;;;;;;;;;;;;5.35;100.00;101936.81;5105966;28;19958;-44
2023/12/27 02:50:37;;;;;;;;;;;;;;;5.29;100.00;101926.59;5104918;28;19928;-46
2023/12/27 02:53:02;;;;;;;;;;;;;;;5.33;100.00;101927.22;5105462;28;19916;-45
2023/12/27 02:55:28;;;;;;;;;;;;;;;5.28;100.00;101920.41;5107154;28;20389;-46
2023/12/27 02:57:53;;;;;;;;;;;;;;;5.26;100.00;101921.50;5108678;28;19998;-46
2023/12/27 03:00:18;;;;;;;;;;;;;;;5.26;100.00;101919.69;5110588;28;20350;-46
2023/12/27 03:02:43;;;;;;;;;;;;;;;5.27;100.00;101913.38;5107675;28;19969;-46
2023/12/27 03:05:09;;;;;;;;;;;;;;;5.34;100.00;101913.75;5109997;28;20014;-45
2023/12/27 03:07:34;;;;;;;;;;;;;;;5.39;100.00;101908.88;5106743;28;20002;-45
2023/12/27 03:09:59;;;;;;;;;;;;;;;5.41;100.00;101888.25;5104371;28;19944;-44
2023/12/27 03:12:24;;;;;;;;;;;;;;;5.44;100.00;101880.00;5108180;28;19958;-45
2023/12/27 03:14:50;;;;;;;;;;;;;;;5.47;100.00;101884.25;5103955;28;19947;-47
2023/12/27 03:17:15;;;;;;;;;;;;;;;5.49;100.00;101883.16;5108695;28;19993;-45
2023/12/27 03:19:40;;;;;;;;;;;;;;;5.48;100.00;101878.81;5111320;28;20031;-45
2023/12/27 03:22:05;;;;;;;;;;;;;;;5.42;100.00;101875.75;5107613;28;19939;-46
2023/12/27 03:24:31;;;;;;;;;;;;;;;5.37;100.00;101873.47;5109598;28;19931;-45
2023/12/27 03:26:56;;;;;;;;;;;;;;;5.41;100.00;101858.06;5107714;28;19920;-47
2023/12/27 03:29:21;;;;;;;;;;;;;;;5.47;100.00;101855.72;5107535;28;19926;-46
2023/12/27 03:31:46;;;;;;;;;;;;;;;5.52;100.00;101851.84;5107411;28;20386;-45
2023/12/27 03:34:12;;;;;;;;;;;;;;;5.45;100.00;101846.13;5108697;28;19932;-46
2023/12/27 03:36:37;;;;;;;;;;;;;;;5.46;100.00;101848.69;5104736;28;19928;-45
2023/12/27 03:39:02;;;;;;;;;;;;;;;5.36;100.00;101844.22;5107648;28;19927;-46
2023/12/27 03:41:27;;;;;;;;;;;;;;;5.28;100.00;101855.50;5109858;28;19935;-45
2023/12/27 03:43:58;;;;;;;;;;;;;;;5.34;100.00;101844.34;5108878;28;19920;-46
2023/12/27 03:46:23;;;;;;;;;;;;;;;5.32;100.00;101845.44;5104294;28;19934;-46
2023/12/27 03:48:48;;;;;;;;;;;;;;;5.33;100.00;101837.31;5111060;28;19920;-44
2023/12/27 03:51:13;;;;;;;;;;;;;;;5.32;100.00;101824.06;5108199;28;19935;-46
2023/12/27 03:53:39;;;;;;;;;;;;;;;5.33;100.00;101829.31;5110792;28;19928;-43
2023/12/27 03:56:08;;;;;;;;;;;;;;;5.33;100.00;101826.63;5107304;28;19968;-45
2023/12/27 03:58:33;;;;;;;;;;;;;;;5.35;100.00;101815.84;5110060;28;19993;-45
2023/12/27 04:00:59;;;;;;;;;;;;;;;5.34;100.00;101812.31;5109696;28;20562;-46
2023/12/27 04:03:24;;;;;;;;;;;;;;;5.36;100.00;101810.38;5109650;28;20010;-45
2023/12/27 04:05:50;;;;;;;;;;;;;;;5.36;100.00;101805.03;5109492;28;19926;-45
2023/12/27 04:08:15;;;;;;;;;;;;;;;5.41;100.00;101802.84;5108223;28;19927;-46
2023/12/27 04:10:40;;;;;;;;;;;;;;;5.39;100.00;101796.75;5104652;28;20038;-45
2023/12/27 04:13:05;;;;;;;;;;;;;;;5.38;100.00;101784.41;5105485;28;20281;-46
2023/12/27 04:15:31;;;;;;;;;;;;;;;5.39;100.00;101783.41;5107753;28;19919;-46
2023/12/27 04:17:56;;;;;;;;;;;;;;;5.42;100.00;101777.81;5106182;28;19926;-48
2023/12/27 04:20:21;;;;;;;;;;;;;;;5.41;100.00;101781.47;5107164;28;19911;-44
2023/12/27 04:22:46;;;;;;;;;;;;;;;5.47;100.00;101770.28;5108016;28;19938;-46
2023/12/27 04:25:11;;;;;;;;;;;;;;;5.49;100.00;101779.03;5109083;28;19923;-44
2023/12/27 04:27:38;;;;;;;;;;;;;;;5.49;100.00;101770.16;5106518;28;19928;-47
2023/12/27 04:30:03;;;;;;;;;;;;;;;5.52;100.00;101764.56;5106016;27;19916;-45
2023/12/27 04:32:29;;;;;;;;;;;;;;;5.56;100.00;101763.38;5105704;28;19972;-44
2023/12/27 04:34:54;;;;;;;;;;;;;;;5.49;100.00;101771.00;5108858;28;19927;-45
2023/12/27 04:37:19;;;;;;;;;;;;;;;5.47;100.00;101762.28;5107810;28;19968;-47
2023/12/27 04:39:44;;;;;;;;;;;;;;;5.57;100.00;101758.88;5109732;28;19951;-45
2023/12/27 04:42:10;;;;;;;;;;;;;;;5.58;100.00;101756.06;5104803;28;20024;-44
2023/12/27 04:44:35;;;;;;;;;;;;;;;5.66;100.00;101758.09;5106269;28;21314;-45
2023/12/27 04:47:01;;;;;;;;;;;;;;;5.57;100.00;101749.03;5103298;28;19938;-45
2023/12/27 04:49:26;;;;;;;;;;;;;;;5.60;100.00;101747.91;5107967;28;20359;-44
2023/12/27 04:51:51;;;;;;;;;;;;;;;5.56;100.00;101736.66;5102031;28;19923;-45
2023/12/27 04:54:17;;;;;;;;;;;;;;;5.61;100.00;101733.59;5108317;28;19924;-47
2023/12/27 04:56:42;;;;;;;;;;;;;;;5.53;100.00;101726.25;5100292;28;19923;-45
2023/12/27 04:59:07;;;;;;;;;;;;;;;5.54;100.00;101722.59;5105690;28;20274;-46
2023/12/27 05:01:32;;;;;;;;;;;;;;;5.58;100.00;101712.47;5106088;28;19924;-45
2023/12/27 05:03:58;;;;;;;;;;;;;;;5.65;100.00;101703.00;5108302;28;20270;-47
2023/12/27 05:06:23;;;;;;;;;;;;;;;5.71;100.00;101706.00;5108115;28;20370;-45
2023/12/27 05:08:48;;;;;;;;;;;;;;;5.71;100.00;101714.03;5108422;28;19916;-46
2023/12/27 05:11:15;;;;;;;;;;;;;;;5.61;100.00;101702.41;5103450;28;20736;-46
2023/12/27 05:13:40;;;;;;;;;;;;;;;5.68;100.00;101708.91;5104479;28;20289;-47
2023/12/27 05:16:14;;;;;;;;;;;;;;;5.62;100.00;101704.09;5108484;28;19928;-47
2023/12/27 05:18:40;;;;;;;;;;;;;;;5.62;100.00;101705.91;5108188;28;19928;-45
2023/12/27 05:21:06;;;;;;;;;;;;;;;5.63;100.00;101702.25;5104689;28;19928;-46
2023/12/27 05:23:31;;;;;;;;;;;;;;;5.66;100.00;101699.34;5103255;28;19920;-45
2023/12/27 05:25:56;;;;;;;;;;;;;;;5.75;100.00;101695.06;5107458;28;19920;-48
2023/12/27 05:28:22;;;;;;;;;;;;;;;5.71;100.00;101694.44;5107857;28;19968;-46
2023/12/27 05:30:47;;;;;;;;;;;;;;;5.72;100.00;101698.84;5105653;28;19924;-45
2023/12/27 05:33:13;;;;;;;;;;;;;;;5.72;100.00;101696.16;5107218;28;19928;-48
2023/12/27 05:35:38;;;;;;;;;;;;;;;5.70;100.00;101700.78;5105348;28;19931;-49
2023/12/27 05:38:03;;;;;;;;;;;;;;;5.59;100.00;101699.00;5103534;28;19920;-47
2023/12/27 05:40:28;;;;;;;;;;;;;;;5.60;100.00;101702.53;5106954;28;19923;-47
2023/12/27 05:42:54;;;;;;;;;;;;;;;5.60;100.00;101697.19;5108135;28;20365;-47
2023/12/27 05:45:19;;;;;;;;;;;;;;;5.67;100.00;101685.03;5107884;28;20366;-49
2023/12/27 05:47:44;;;;;;;;;;;;;;;5.67;100.00;101683.19;5109691;28;19923;-48
2023/12/27 05:50:09;;;;;;;;;;;;;;;5.66;100.00;101672.63;5107532;28;19927;-48
2023/12/27 05:52:34;;;;;;;;;;;;;;;5.64;100.00;101680.78;5104738;28;19920;-48
2023/12/27 05:55:00;;;;;;;;;;;;;;;5.68;100.00;101692.88;5100229;28;19916;-49
2023/12/27 05:57:25;;;;;;;;;;;;;;;5.62;100.00;101687.22;5108534;28;19927;-48
2023/12/27 05:59:51;;;;;;;;;;;;;;;5.63;100.00;101678.22;5106759;28;19999;-49
2023/12/27 06:02:17;;;;;;;;;;;;;;;5.63;100.00;101676.41;5103076;28;19920;-51
2023/12/27 06:04:42;;;;;;;;;;;;;;;5.64;100.00;101664.75;5105866;28;20042;-50
2023/12/27 06:07:07;;;;;;;;;;;;;;;5.65;100.00;101670.94;5107013;28;20023;-54
2023/12/27 06:09:32;;;;;;;;;;;;;;;5.67;100.00;101652.97;5102584;28;19955;-54
2023/12/27 06:11:58;;;;;;;;;;;;;;;5.64;100.00;101635.38;5108957;28;20326;-50
2023/12/27 06:14:23;;;;;;;;;;;;;;;5.63;100.00;101638.16;5109231;28;20348;-50
2023/12/27 06:16:48;;;;;;;;;;;;;;;5.61;100.00;101634.78;5105547;28;19923;-56
2023/12/27 06:19:13;;;;;;;;;;;;;;;5.65;100.00;101638.91;5104633;28;19939;-50
2023/12/27 06:21:39;;;;;;;;;;;;;;;5.58;100.00;101632.38;5103580;28;19927;-49
2023/12/27 06:24:04;;;;;;;;;;;;;;;5.56;100.00;101623.66;5107271;28;19945;-52
2023/12/27 06:26:30;;;;;;;;;;;;;;;5.50;100.00;101619.66;5104408;28;19919;-52
2023/12/27 06:28:55;;;;;;;;;;;;;;;5.63;100.00;101609.63;5106075;28;20300;-51
2023/12/27 06:31:20;;;;;;;;;;;;;;;5.63;100.00;101609.63;5106096;28;19999;-50
2023/12/27 06:33:45;;;;;;;;;;;;;;;5.64;100.00;101611.34;5108658;28;19919;-52
2023/12/27 06:36:11;;;;;;;;;;;;;;;5.61;100.00;101606.28;5105707;28;19928;-51
2023/12/27 06:38:36;;;;;;;;;;;;;;;5.65;100.00;101591.66;5110287;28;20013;-52
2023/12/27 06:41:02;;;;;;;;;;;;;;;5.59;100.00;101591.34;5107124;28;19924;-51
2023/12/27 06:43:28;;;;;;;;;;;;;;;5.58;100.00;101595.00;5107258;28;20385;-49
2023/12/27 06:45:53;;;;;;;;;;;;;;;5.66;100.00;101592.50;5110691;28;19958;-51
2023/12/27 06:48:18;;;;;;;;;;;;;;;5.61;100.00;101590.25;5112262;28;19928;-51
2023/12/27 06:50:44;;;;;;;;;;;;;;;5.64;100.00;101594.50;5108086;28;19935;-50
2023/12/27 06:53:09;;;;;;;;;;;;;;;5.64;100.00;101597.16;5108450;28;19962;-49
2023/12/27 06:55:34;;;;;;;;;;;;;;;5.69;100.00;101586.94;5107760;28;19919;-51
2023/12/27 06:58:00;;;;;;;;;;;;;;;5.66;100.00;101588.03;5109096;28;19916;-54
2023/12/27 07:00:26;;;;;;;;;;;;;;;5.70;100.00;101583.28;5103156;28;19927;-52
2023/12/27 07:02:51;;;;;;;;;;;;;;;5.67;100.00;101576.38;5109935;28;19971;-61
2023/12/27 07:05:16;;;;;;;;;;;;;;;5.69;100.00;101581.59;5091058;28;20753;-57
2023/12/27 07:07:41;;;;;;;;;;;;;;;5.72;100.00;101576.81;5107691;28;19985;-54
2023/12/27 07:10:08;;;;;;;;;;;;;;;5.66;100.00;101581.81;5107534;28;21251;-53
2023/12/27 07:12:33;;;;;;;;;;;;;;;5.69;100.00;101578.91;5102806;28;19963;-50
2023/12/27 07:14:58;;;;;;;;;;;;;;;5.75;100.00;101575.72;5109731;28;19943;-51
2023/12/27 07:17:24;;;;;;;;;;;;;;;5.71;100.00;101574.25;5107307;28;19962;-53
2023/12/27 07:19:49;;;;;;;;;;;;;;;5.80;100.00;101573.47;5084700;28;19920;-57
2023/12/27 07:22:14;;;;;;;;;;;;;;;5.83;100.00;101577.72;5106364;28;19997;-57
2023/12/27 07:24:40;;;;;;;;;;;;;;;5.82;100.00;101571.53;5107562;28;20005;-56
2023/12/27 07:27:05;;;;;;;;;;;;;;;5.83;100.00;101567.03;5104917;28;19931;-58
2023/12/27 07:29:30;;;;;;;;;;;;;;;5.85;100.00;101565.91;5109311;28;21059;-59
2023/12/27 07:31:56;;;;;;;;;;;;;;;5.91;100.00;101570.72;5109869;28;19934;-59
2023/12/27 07:34:21;;;;;;;;;;;;;;;5.93;100.00;101568.81;5107560;28;19931;-57
2023/12/27 07:36:47;;;;;;;;;;;;;;;5.94;100.00;101573.16;5106217;28;19984;-55
2023/12/27 07:39:15;;;;;;;;;;;;;;;6.02;100.00;101568.97;5100389;28;19958;-57
2023/12/27 07:41:40;;;;;;;;;;;;;;;6.08;100.00;101568.41;5108974;28;19924;-54
2023/12/27 07:44:06;;;;;;;;;;;;;;;6.08;100.00;101563.06;5109905;28;20536;-56
2023/12/27 07:46:31;;;;;;;;;;;;;;;6.10;100.00;101558.44;5108832;28;20325;-55
2023/12/27 07:48:56;;;;;;;;;;;;;;;6.14;100.00;101554.53;5110011;28;20231;-59
2023/12/27 07:51:21;;;;;;;;;;;;;;;6.14;100.00;101554.53;5107479;28;20390;-55
2023/12/27 07:53:50;;;;;;;;;;;;;;;6.10;100.00;101547.75;5110760;28;20365;-54
2023/12/27 07:56:15;;;;;;;;;;;;;;;6.17;100.00;101548.06;5107496;28;19920;-51
2023/12/27 07:58:40;;;;;;;;;;;;;;;6.15;100.00;101542.84;5096345;28;20305;-49
2023/12/27 08:01:06;;;;;;;;;;;;;;;6.17;100.00;101535.56;5103908;28;19923;-49
2023/12/27 08:03:31;;;;;;;;;;;;;;;6.20;100.00;101529.09;5093278;28;19920;-52
2023/12/27 08:05:56;;;;;;;;;;;;;;;6.24;100.00;101538.50;5105406;28;19947;-52
2023/12/27 08:08:21;;;;;;;;;;;;;;;6.22;100.00;101530.66;5105831;28;19978;-49
2023/12/27 08:10:47;;;;;;;;;;;;;;;6.23;100.00;101531.47;5106894;28;19916;-50
2023/12/27 08:13:12;;;;;;;;;;;;;;;6.26;100.00;101524.03;5105023;28;19934;-52
2023/12/27 08:15:37;;;;;;;;;;;;;;;6.28;100.00;101514.06;5105291;28;19928;-50
2023/12/27 08:18:03;;;;;;;;;;;;;;;6.31;100.00;101513.78;5104893;28;19926;-53
2023/12/27 08:20:29;;;;;;;;;;;;;;;6.39;100.00;101510.41;5095174;28;19966;-51
2023/12/27 08:22:54;;;;;;;;;;;;;;;6.44;100.00;101501.97;5105960;28;20002;-49
2023/12/27 08:25:19;;;;;;;;;;;;;;;6.49;100.00;101505.09;5105662;28;20007;-50
2023/12/27 08:27:45;;;;;;;;;;;;;;;6.53;100.00;101493.09;5106096;28;19949;-47
2023/12/27 08:30:10;;;;;;;;;;;;;;;6.59;100.00;101490.72;5102409;28;19927;-46
2023/12/27 08:32:35;;;;;;;;;;;;;;;6.63;100.00;101485.09;5103541;28;20382;-46
2023/12/27 08:35:01;;;;;;;;;;;;;;;6.68;100.00;101498.91;5106468;28;19920;-47
2023/12/27 08:37:27;;;;;;;;;;;;;;;6.72;100.00;101495.81;5105193;28;19919;-47
2023/12/27 08:39:52;;;;;;;;;;;;;;;6.79;100.00;101485.38;5107395;28;20281;-48
2023/12/27 08:42:17;;;;;;;;;;;;;;;6.82;100.00;101479.75;5107369;28;19981;-46
2023/12/27 08:44:42;;;;;;;;;;;;;;;6.89;100.00;101472.84;5107112;28;19931;-45
2023/12/27 08:47:08;;;;;;;;;;;;;;;6.95;100.00;101480.31;5100743;28;19927;-45
2023/12/27 08:49:33;;;;;;;;;;;;;;;7.04;100.00;101481.28;5105503;28;19984;-44
2023/12/27 08:51:58;;;;;;;;;;;;;;;7.11;100.00;101471.69;5104627;28;20010;-45
2023/12/27 08:54:25;;;;;;;;;;;;;;;7.18;100.00;101469.28;5102274;28;20024;-45
2023/12/27 08:56:50;;;;;;;;;;;;;;;7.21;100.00;101464.50;5104895;28;20316;-45
2023/12/27 08:59:15;;;;;;;;;;;;;;;7.26;100.00;101451.50;5104235;28;20018;-46
2023/12/27 09:01:41;;;;;;;;;;;;;;;7.34;100.00;101455.28;5105151;28;19927;-43
2023/12/27 09:04:06;;;;;;;;;;;;;;;7.36;100.00;101450.63;5103614;28;20301;-45
2023/12/27 09:06:31;;;;;;;;;;;;;;;7.40;100.00;101457.41;5102164;28;20282;-45
2023/12/27 09:08:56;;;;;;;;;;;;;;;7.51;100.00;101456.38;5104964;28;20267;-45
2023/12/27 09:11:22;;;;;;;;;;;;;;;7.56;100.00;101457.59;5097258;28;19924;-45
2023/12/27 09:13:47;;;;;;;;;;;;;;;7.60;100.00;101458.97;5105177;28;20320;-46
2023/12/27 09:16:12;;;;;;;;;;;;;;;7.65;100.00;101456.72;5105471;28;19927;-48
2023/12/27 09:18:38;;;;;;;;;;;;;;;7.77;100.00;101453.84;5103008;28;19924;-45
2023/12/27 09:21:03;;;;;;;;;;;;;;;7.80;100.00;101448.19;5104514;28;19937;-45
2023/12/27 09:23:28;;;;;;;;;;;;;;;7.84;100.00;101442.38;5104011;28;19931;-46
2023/12/27 09:25:54;;;;;;;;;;;;;;;7.89;100.00;101441.94;5103951;28;19916;-45
2023/12/27 09:28:19;;;;;;;;;;;;;;;7.91;100.00;101430.06;5105680;28;19924;-44
2023/12/27 09:30:44;;;;;;;;;;;;;;;7.97;100.00;101423.25;5105943;28;19920;-45
2023/12/27 09:33:09;;;;;;;;;;;;;;;7.98;100.00;101422.28;5097472;28;19931;-46
2023/12/27 09:35:35;;;;;;;;;;;;;;;8.01;100.00;101419.28;5102096;28;19916;-45
2023/12/27 09:38:00;;;;;;;;;;;;;;;8.01;100.00;101418.47;5104823;28;19920;-47
2023/12/27 09:40:25;;;;;;;;;;;;;;;7.98;100.00;101419.59;5105652;28;19980;-45
2023/12/27 09:42:50;;;;;;;;;;;;;;;8.09;100.00;101415.84;5106190;28;20035;-46
2023/12/27 09:45:16;;;;;;;;;;;;;;;8.16;100.00;101410.72;5107274;28;19924;-47
2023/12/27 09:47:43;;;;;;;;;;;;;;;8.16;100.00;101421.44;5098004;28;20544;-46
2023/12/27 09:50:08;;;;;;;;;;;;;;;8.20;100.00;101422.84;5102864;28;19923;-45
2023/12/27 09:52:33;;;;;;;;;;;;;;;8.26;100.00;101416.84;5100711;28;20386;-44
2023/12/27 09:54:59;;;;;;;;;;;;;;;8.22;100.00;101421.69;5096165;28;19920;-44
2023/12/27 09:57:25;;;;;;;;;;;;;;;8.28;100.00;101421.06;5104861;28;19951;-46
2023/12/27 09:59:51;;;;;;;;;;;;;;;8.30;100.00;101424.44;5099960;28;20378;-46
2023/12/27 10:02:20;;;;;;;;;;;;;;;8.34;100.00;101423.13;5095293;28;20735;-45
2023/12/27 10:04:47;;;;;;;;;;;;;;;8.40;100.00;101402.97;5103384;28;20003;-46
2023/12/27 10:07:14;;;;;;;;;;;;;;;8.46;100.00;101386.22;5100026;28;19924;-44
2023/12/27 10:09:39;;;;;;;;;;;;;;;8.42;100.00;101387.53;5108697;28;19939;-46
2023/12/27 10:12:05;;;;;;;;;;;;;;;8.48;100.00;101391.47;5108033;28;19923;-46
2023/12/27 10:14:31;;;;;;;;;;;;;;;8.52;100.00;101382.09;5094690;28;19968;-47
2023/12/27 10:16:56;;;;;;;;;;;;;;;8.55;100.00;101374.56;5107604;28;19923;-44
2023/12/27 10:19:40;;;;;;;;;;;;;;;8.60;100.00;101367.91;5106658;28;19923;-45
2023/12/27 10:22:06;;;;;;;;;;;;;;;8.61;100.00;101367.75;5108643;28;19924;-47
2023/12/27 10:24:31;;;;;;;;;;;;;;;8.65;100.00;101365.59;5097138;28;20392;-45
2023/12/27 10:26:59;;;;;;;;;;;;;;;8.72;100.00;101355.91;5107719;28;19946;-46
2023/12/27 10:29:25;;;;;;;;;;;;;;;8.75;100.00;101352.91;5108284;27;19919;-45
2023/12/27 10:31:50;;;;;;;;;;;;;;;8.78;100.00;101374.91;5109366;28;19927;-46
2023/12/27 10:34:15;;;;;;;;;;;;;;;8.72;100.00;101385.44;5109480;28;19925;-46
2023/12/27 10:36:42;;;;;;;;;;;;;;;8.71;100.00;101400.69;5103420;28;20705;-44
2023/12/27 10:39:09;;;;;;;;;;;;;;;8.75;100.00;101385.97;5109520;28;19926;-46
2023/12/27 10:41:34;;;;;;;;;;;;;;;8.75;100.00;101369.03;5109473;28;19920;-46
2023/12/27 10:44:00;;;;;;;;;;;;;;;8.76;100.00;101376.91;5109917;28;19927;-46
2023/12/27 10:46:25;;;;;;;;;;;;;;;8.78;100.00;101368.69;5106429;28;19916;-46
2023/12/27 10:48:52;;;;;;;;;;;;;;;8.82;100.00;101362.03;5109514;28;19919;-46
2023/12/27 10:51:17;;;;;;;;;;;;;;;8.93;100.00;101334.91;5108602;28;19927;-48
2023/12/27 10:53:43;;;;;;;;;;;;;;;8.94;100.00;101338.44;5097102;28;19995;-47
2023/12/27 10:56:08;;;;;;;;;;;;;;;8.98;100.00;101354.06;5107039;28;20517;-45
2023/12/27 10:58:34;;;;;;;;;;;;;;;8.97;100.00;101330.91;5109028;28;19916;-46
2023/12/27 11:00:59;;;;;;;;;;;;;;;8.97;100.00;101333.56;5102321;28;20401;-44
2023/12/27 11:03:25;;;;;;;;;;;;;;;9.05;100.00;101316.66;5104017;28;19916;-45
2023/12/27 11:05:51;;;;;;;;;;;;;;;9.12;100.00;101312.34;5107280;28;20021;-45
2023/12/27 11:08:17;;;;;;;;;;;;;;;9.05;100.00;101327.41;5109855;28;20472;-46
2023/12/27 11:10:42;;;;;;;;;;;;;;;9.05;100.00;101318.53;5111793;28;19924;-45
2023/12/27 11:13:07;;;;;;;;;;;;;;;9.05;100.00;101319.34;5108697;28;19934;-45
2023/12/27 11:15:32;;;;;;;;;;;;;;;9.01;100.00;101305.41;5104271;28;19926;-45
2023/12/27 11:18:00;;;;;;;;;;;;;;;9.05;100.00;101305.94;5108691;28;20289;-46
2023/12/27 11:20:26;;;;;;;;;;;;;;;9.07;100.00;101297.72;5107048;28;19992;-43
2023/12/27 11:22:51;;;;;;;;;;;;;;;9.09;100.00;101290.38;5107296;28;19920;-44
2023/12/27 11:25:16;;;;;;;;;;;;;;;9.14;100.00;101288.03;5109615;27;20434;-45
2023/12/27 11:27:42;;;;;;;;;;;;;;;9.10;100.00;101275.91;5107064;28;20022;-47
2023/12/27 11:30:12;;;;;;;;;;;;;;;9.12;100.00;101260.50;5092426;28;19942;-46
2023/12/27 11:32:39;;;;;;;;;;;;;;;9.08;100.00;101256.44;5109751;28;19935;-46
2023/12/27 11:35:04;;;;;;;;;;;;;;;9.10;100.00;101254.44;5109840;28;19916;-46
2023/12/27 11:37:30;;;;;;;;;;;;;;;9.13;100.00;101243.38;5104687;28;19923;-45
2023/12/27 11:39:55;;;;;;;;;;;;;;;9.11;100.00;101240.00;5104353;28;19993;-47
2023/12/27 11:42:21;;;;;;;;;;;;;;;9.06;100.00;101247.69;5106443;28;19915;-45
2023/12/27 11:44:53;;;;;;;;;;;;;;;9.08;100.00;101238.47;5105662;28;19927;-45
2023/12/27 11:47:22;;;;;;;;;;;;;;;9.11;100.00;101224.75;5108693;28;19931;-47
2023/12/27 11:50:07;;;;;;;;;;;;;;;9.21;100.00;101212.00;5108085;28;20054;-47
2023/12/27 11:52:33;;;;;;;;;;;;;;;9.21;100.00;101213.84;5107675;27;20381;-46
2023/12/27 11:55:18;;;;;;;;;;;;;;;9.27;100.00;101205.16;5106513;28;19958;-45
2023/12/27 11:57:43;;;;;;;;;;;;;;;9.18;100.00;101203.44;5107789;28;19927;-45
2023/12/27 12:00:11;;;;;;;;;;;;;;;9.19;100.00;101191.72;5104759;28;20347;-45
2023/12/27 12:02:36;;;;;;;;;;;;;;;9.18;100.00;101192.69;5105795;28;19928;-49
2023/12/27 12:05:20;;;;;;;;;;;;;;;9.27;100.00;101196.22;5103761;28;19922;-45
2023/12/27 12:07:51;;;;;;;;;;;;;;;9.29;100.00;101189.69;5107383;28;20302;-46
2023/12/27 12:10:24;;;;;;;;;;;;;;;9.28;100.00;101177.28;5105221;28;20515;-46
2023/12/27 12:12:51;;;;;;;;;;;;;;;9.31;100.00;101160.84;5106196;28;19920;-47
2023/12/27 12:15:16;;;;;;;;;;;;;;;9.41;100.00;101150.78;5106282;28;20410;-47
2023/12/27 12:17:41;;;;;;;;;;;;;;;9.41;100.00;101158.84;5105138;28;19924;-46
2023/12/27 12:20:07;;;;;;;;;;;;;;;9.42;100.00;101151.59;5103583;28;19946;-45
2023/12/27 12:22:32;;;;;;;;;;;;;;;9.45;100.00;101140.53;5105103;28;20298;-45
2023/12/27 12:25:07;;;;;;;;;;;;;;;9.50;100.00;101129.28;5103373;28;19916;-46
2023/12/27 12:27:33;;;;;;;;;;;;;;;9.38;100.00;101123.41;5106511;28;19920;-45